Time;durP1;ratioP1;P1;durP2;ratioP2;P2;SDS_P1;SDS_P2;PMS_P1;PMS_P2;Temp;Humidity;BMP_temperature;BMP_pressure;BME280_temperature;BME280_humidity;BME280_pressure;Samples;Min_cycle;Max_cycle;Signal;HPM_P1;HPM_P2
2022/11/13 00:01:09;;;;;;;21.65;12.27;;;;;;;;;;5016649;28;20582;-79
2022/11/13 00:03:35;;;;;;;25.70;12.10;;;;;;;;;;5028539;28;20049;-79
2022/11/13 00:06:02;;;;;;;21.23;12.30;;;;;;;;;;5009397;28;20046;-79
2022/11/13 00:08:29;;;;;;;23.08;12.77;;;;;;;;;;5011486;28;20060;-81
2022/11/13 00:11:03;;;;;;;20.85;12.18;;;;;;;;;;5010413;28;20054;-78
2022/11/13 00:13:29;;;;;;;24.38;13.13;;;;;;;;;;5006442;28;20046;-81
2022/11/13 00:16:00;;;;;;;25.30;11.52;;;;;;;;;;5000376;28;20494;-78
2022/11/13 00:18:27;;;;;;;21.13;11.13;;;;;;;;;;5016376;28;20053;-80
2022/11/13 00:20:54;;;;;;;18.05;10.82;;;;;;;;;;5030669;28;20573;-79
2022/11/13 00:23:21;;;;;;;22.20;11.35;;;;;;;;;;5008316;28;20058;-80
2022/11/13 00:25:47;;;;;;;19.45;10.82;;;;;;;;;;5000387;28;20056;-78
2022/11/13 00:28:14;;;;;;;23.10;12.52;;;;;;;;;;4992328;28;20874;-81
2022/11/13 00:30:40;;;;;;;24.75;13.10;;;;;;;;;;4991900;28;20062;-80
2022/11/13 00:33:07;;;;;;;24.35;13.30;;;;;;;;;;5001298;28;20054;-77
2022/11/13 00:35:33;;;;;;;23.33;12.88;;;;;;;;;;5010143;28;20116;-79
2022/11/13 00:37:59;;;;;;;22.05;12.77;;;;;;;;;;5009200;28;20057;-78
2022/11/13 00:40:25;;;;;;;27.83;13.20;;;;;;;;;;5011301;28;20052;-79
2022/11/13 00:42:52;;;;;;;25.77;14.25;;;;;;;;;;5009415;28;20065;-79
2022/11/13 00:45:18;;;;;;;25.52;13.55;;;;;;;;;;5028288;28;20045;-80
2022/11/13 00:47:44;;;;;;;26.55;12.98;;;;;;;;;;5007091;28;20054;-80
2022/11/13 00:50:10;;;;;;;23.05;12.80;;;;;;;;;;5026519;28;20476;-79
2022/11/13 00:52:37;;;;;;;24.67;12.70;;;;;;;;;;5026433;28;20065;-78
2022/11/13 00:55:03;;;;;;;21.63;11.95;;;;;;;;;;5006331;28;20065;-77
2022/11/13 00:57:30;;;;;;;21.58;11.52;;;;;;;;;;5027937;28;20097;-76
2022/11/13 00:59:56;;;;;;;24.25;12.32;;;;;;;;;;5008227;28;20707;-80
2022/11/13 01:02:22;;;;;;;22.70;11.85;;;;;;;;;;5026913;28;20057;-77
2022/11/13 01:04:48;;;;;;;23.17;12.32;;;;;;;;;;5007583;28;20430;-77
2022/11/13 01:07:15;;;;;;;22.70;11.48;;;;;;;;;;5009245;28;20065;-78
2022/11/13 01:09:41;;;;;;;29.65;12.35;;;;;;;;;;5026893;28;20136;-77
2022/11/13 01:12:07;;;;;;;22.63;12.60;;;;;;;;;;5005497;28;20511;-78
2022/11/13 01:14:34;;;;;;;21.23;11.95;;;;;;;;;;5007180;28;20053;-80
2022/11/13 01:17:00;;;;;;;24.00;11.90;;;;;;;;;;5009907;28;20042;-78
2022/11/13 01:19:27;;;;;;;20.45;12.00;;;;;;;;;;5010389;28;20058;-77
2022/11/13 01:21:53;;;;;;;22.33;12.18;;;;;;;;;;5008925;28;20050;-78
2022/11/13 01:24:19;;;;;;;26.05;13.27;;;;;;;;;;5008282;28;20054;-77
2022/11/13 01:26:46;;;;;;;23.05;12.52;;;;;;;;;;5025870;28;20882;-77
2022/11/13 01:29:12;;;;;;;21.58;11.20;;;;;;;;;;5010278;28;20160;-79
2022/11/13 01:31:38;;;;;;;19.45;11.13;;;;;;;;;;5007646;28;20054;-79
2022/11/13 01:34:05;;;;;;;20.90;11.75;;;;;;;;;;5000011;28;20133;-78
2022/11/13 01:36:31;;;;;;;17.73;10.18;;;;;;;;;;5005239;28;20062;-78
2022/11/13 01:38:57;;;;;;;17.90;10.40;;;;;;;;;;5009392;28;20062;-79
2022/11/13 01:41:31;;;;;;;22.30;11.75;;;;;;;;;;5007753;28;20497;-80
2022/11/13 01:43:58;;;;;;;21.35;11.65;;;;;;;;;;5005026;28;21010;-79
2022/11/13 01:46:24;;;;;;;19.92;11.15;;;;;;;;;;4990247;28;20064;-79
2022/11/13 01:48:54;;;;;;;20.80;11.50;;;;;;;;;;5006689;28;20065;-76
2022/11/13 01:51:26;;;;;;;24.00;12.07;;;;;;;;;;5007496;28;20051;-76
2022/11/13 01:53:52;;;;;;;22.00;11.73;;;;;;;;;;5005837;28;20066;-79
2022/11/13 01:56:19;;;;;;;23.92;12.07;;;;;;;;;;5000931;28;20533;-81
2022/11/13 01:58:49;;;;;;;21.98;11.90;;;;;;;;;;5008376;28;20060;-78
2022/11/13 02:01:16;;;;;;;18.52;10.95;;;;;;;;;;5042407;28;20065;-81
2022/11/13 02:03:43;;;;;;;18.58;10.75;;;;;;;;;;5041414;28;21175;-80
2022/11/13 02:06:09;;;;;;;19.23;10.88;;;;;;;;;;5014989;28;20058;-80
2022/11/13 02:08:35;;;;;;;21.98;11.90;;;;;;;;;;5016080;28;20054;-79
2022/11/13 02:11:02;;;;;;;20.90;11.95;;;;;;;;;;5016412;28;20087;-76
2022/11/13 02:13:28;;;;;;;21.00;11.95;;;;;;;;;;5019882;28;20062;-77
2022/11/13 02:15:55;;;;;;;21.67;12.27;;;;;;;;;;5038353;28;20057;-79
2022/11/13 02:18:22;;;;;;;23.52;12.60;;;;;;;;;;5036489;28;20061;-76
2022/11/13 02:20:49;;;;;;;22.50;11.80;;;;;;;;;;5014683;28;20062;-76
2022/11/13 02:23:27;;;;;;;20.65;11.82;;;;;;;;;;5011772;28;20053;-77
2022/11/13 02:25:53;;;;;;;23.00;13.02;;;;;;;;;;5027858;28;20061;-78
2022/11/13 02:28:20;;;;;;;20.70;11.63;;;;;;;;;;5030607;28;20409;-78
2022/11/13 02:30:46;;;;;;;22.55;12.80;;;;;;;;;;5030505;28;20057;-78
2022/11/13 02:33:19;;;;;;;24.05;12.90;;;;;;;;;;5029671;28;20601;-78
2022/11/13 02:35:45;;;;;;;20.42;12.02;;;;;;;;;;5009877;28;20108;-78
2022/11/13 02:38:12;;;;;;;20.30;12.25;;;;;;;;;;5027446;28;20057;-76
2022/11/13 02:40:38;;;;;;;21.33;12.02;;;;;;;;;;5030247;28;20911;-77
2022/11/13 02:43:04;;;;;;;22.45;11.85;;;;;;;;;;5011340;28;20050;-79
2022/11/13 02:45:31;;;;;;;20.25;11.93;;;;;;;;;;5008596;28;20089;-76
2022/11/13 02:48:00;;;;;;;22.42;11.68;;;;;;;;;;5007593;28;20053;-76
2022/11/13 02:50:26;;;;;;;18.80;11.27;;;;;;;;;;5028250;28;21172;-77
2022/11/13 02:52:53;;;;;;;20.58;11.23;;;;;;;;;;5028638;28;20143;-76
2022/11/13 02:55:19;;;;;;;17.92;11.15;;;;;;;;;;5009415;28;20136;-77
2022/11/13 02:57:45;;;;;;;21.20;11.45;;;;;;;;;;5026759;28;20870;-77
2022/11/13 03:00:12;;;;;;;21.85;11.23;;;;;;;;;;5025753;28;20096;-76
2022/11/13 03:02:39;;;;;;;20.20;10.93;;;;;;;;;;5008883;28;20517;-79
2022/11/13 03:05:06;;;;;;;21.05;11.80;;;;;;;;;;5009841;28;20058;-78
2022/11/13 03:07:38;;;;;;;19.58;11.70;;;;;;;;;;5011497;28;20087;-77
2022/11/13 03:10:05;;;;;;;18.25;11.23;;;;;;;;;;5027045;28;20540;-80
2022/11/13 03:12:31;;;;;;;18.98;10.80;;;;;;;;;;5007684;28;20517;-76
2022/11/13 03:14:58;;;;;;;22.02;10.90;;;;;;;;;;5008946;28;21134;-77
2022/11/13 03:17:24;;;;;;;20.27;10.88;;;;;;;;;;5027850;28;20130;-77
2022/11/13 03:19:50;;;;;;;22.55;11.98;;;;;;;;;;5010151;28;20428;-76
2022/11/13 03:22:17;;;;;;;21.35;11.95;;;;;;;;;;5010741;28;20046;-76
2022/11/13 03:24:43;;;;;;;23.83;11.68;;;;;;;;;;5024466;28;20509;-76
2022/11/13 03:27:09;;;;;;;19.98;11.00;;;;;;;;;;5027000;28;20062;-79
2022/11/13 03:29:35;;;;;;;21.98;11.90;;;;;;;;;;5010831;28;20058;-77
2022/11/13 03:32:02;;;;;;;21.63;11.75;;;;;;;;;;5009560;28;20065;-76
2022/11/13 03:34:28;;;;;;;19.55;12.05;;;;;;;;;;5007347;28;20062;-76
2022/11/13 03:36:54;;;;;;;23.95;12.32;;;;;;;;;;5028403;28;20046;-76
2022/11/13 03:39:21;;;;;;;23.23;12.38;;;;;;;;;;5010140;28;20497;-80
2022/11/13 03:41:47;;;;;;;20.20;12.68;;;;;;;;;;5027098;28;20902;-78
2022/11/13 03:44:14;;;;;;;19.85;11.75;;;;;;;;;;5006554;28;20046;-76
2022/11/13 03:46:40;;;;;;;24.92;12.23;;;;;;;;;;5006388;28;20057;-77
2022/11/13 03:49:06;;;;;;;22.35;11.73;;;;;;;;;;5007117;28;20054;-80
2022/11/13 03:51:33;;;;;;;25.13;12.32;;;;;;;;;;5007631;28;20062;-78
2022/11/13 03:53:59;;;;;;;21.23;12.02;;;;;;;;;;5003960;28;20060;-76
2022/11/13 03:56:26;;;;;;;21.83;12.55;;;;;;;;;;5006114;28;20074;-78
2022/11/13 03:58:52;;;;;;;22.77;11.80;;;;;;;;;;5008362;28;20057;-78
2022/11/13 04:01:18;;;;;;;20.30;12.10;;;;;;;;;;5006982;28;20050;-78
2022/11/13 04:03:45;;;;;;;17.88;11.13;;;;;;;;;;5008718;28;20051;-77
2022/11/13 04:06:11;;;;;;;21.05;11.20;;;;;;;;;;5009815;28;20061;-81
2022/11/13 04:08:37;;;;;;;20.63;11.48;;;;;;;;;;5005825;28;20065;-77
2022/11/13 04:11:04;;;;;;;19.00;11.23;;;;;;;;;;5026504;28;20118;-78
2022/11/13 04:13:32;;;;;;;23.23;11.63;;;;;;;;;;5009480;28;20827;-78
2022/11/13 04:15:58;;;;;;;19.48;10.82;;;;;;;;;;5009714;28;20046;-76
2022/11/13 04:18:25;;;;;;;18.30;10.95;;;;;;;;;;5007149;28;20517;-78
2022/11/13 04:20:51;;;;;;;19.67;11.57;;;;;;;;;;5009177;28;20088;-75
2022/11/13 04:23:18;;;;;;;22.00;12.30;;;;;;;;;;5009516;28;20050;-78
2022/11/13 04:25:44;;;;;;;20.27;11.52;;;;;;;;;;5007008;28;20061;-79
2022/11/13 04:28:10;;;;;;;20.60;11.13;;;;;;;;;;5025028;28;20500;-76
2022/11/13 04:30:37;;;;;;;20.77;11.88;;;;;;;;;;5009513;28;20060;-79
2022/11/13 04:33:03;;;;;;;21.05;11.77;;;;;;;;;;5009462;28;21412;-77
2022/11/13 04:35:29;;;;;;;19.73;11.68;;;;;;;;;;5008977;28;20057;-77
2022/11/13 04:37:55;;;;;;;24.10;12.55;;;;;;;;;;5009287;28;20110;-76
2022/11/13 04:40:22;;;;;;;24.83;12.45;;;;;;;;;;5024953;28;20063;-76
2022/11/13 04:42:48;;;;;;;22.98;12.27;;;;;;;;;;5009072;28;20054;-77
2022/11/13 04:45:18;;;;;;;21.20;11.45;;;;;;;;;;5026362;28;20045;-78
2022/11/13 04:47:45;;;;;;;20.77;12.20;;;;;;;;;;5025212;28;20049;-76
2022/11/13 04:50:12;;;;;;;23.10;11.82;;;;;;;;;;5007825;28;20050;-77
2022/11/13 04:52:38;;;;;;;19.02;11.15;;;;;;;;;;5026997;28;20066;-76
2022/11/13 04:55:05;;;;;;;21.48;11.48;;;;;;;;;;5025670;28;20058;-77
2022/11/13 04:57:31;;;;;;;22.65;11.05;;;;;;;;;;5007931;28;20547;-77
2022/11/13 04:59:57;;;;;;;20.38;11.27;;;;;;;;;;5009282;28;20101;-77
2022/11/13 05:02:24;;;;;;;19.90;10.93;;;;;;;;;;5009182;28;20796;-78
2022/11/13 05:04:50;;;;;;;18.55;10.35;;;;;;;;;;5025528;28;20053;-79
2022/11/13 05:07:16;;;;;;;20.77;10.90;;;;;;;;;;5005306;28;20062;-79
2022/11/13 05:09:43;;;;;;;19.63;11.20;;;;;;;;;;5008754;28;20096;-78
2022/11/13 05:12:09;;;;;;;16.95;10.27;;;;;;;;;;5009964;28;20509;-79
2022/11/13 05:14:36;;;;;;;18.98;9.98;;;;;;;;;;5003223;28;20054;-79
2022/11/13 05:17:03;;;;;;;17.10;10.23;;;;;;;;;;5008209;28;20042;-76
2022/11/13 05:19:31;;;;;;;15.98;9.52;;;;;;;;;;5008272;28;20444;-79
2022/11/13 05:21:57;;;;;;;18.75;9.88;;;;;;;;;;5010273;28;20509;-78
2022/11/13 05:24:23;;;;;;;19.25;9.85;;;;;;;;;;5010489;28;20065;-77
2022/11/13 05:26:50;;;;;;;20.13;10.43;;;;;;;;;;5027348;28;20056;-79
2022/11/13 05:29:16;;;;;;;19.40;9.82;;;;;;;;;;5019293;28;20050;-78
2022/11/13 05:31:43;;;;;;;20.08;10.80;;;;;;;;;;5010673;28;20054;-76
2022/11/13 05:34:09;;;;;;;20.23;11.20;;;;;;;;;;5006330;28;20074;-77
2022/11/13 05:36:35;;;;;;;17.88;10.73;;;;;;;;;;5008687;28;20530;-77
2022/11/13 05:39:02;;;;;;;17.98;10.45;;;;;;;;;;5008475;28;20069;-78
2022/11/13 05:41:28;;;;;;;19.38;10.13;;;;;;;;;;5012484;28;20143;-78
2022/11/13 05:43:55;;;;;;;17.40;10.00;;;;;;;;;;5011885;28;20061;-79
2022/11/13 05:46:28;;;;;;;18.58;10.07;;;;;;;;;;5011711;28;20050;-79
2022/11/13 05:48:55;;;;;;;17.35;10.18;;;;;;;;;;5010665;28;20579;-77
2022/11/13 05:51:24;;;;;;;18.05;9.68;;;;;;;;;;5031212;28;20062;-76
2022/11/13 05:53:51;;;;;;;18.20;10.48;;;;;;;;;;5013462;28;20061;-75
2022/11/13 05:56:22;;;;;;;18.45;10.30;;;;;;;;;;5031228;28;20062;-77
2022/11/13 05:58:49;;;;;;;20.58;10.95;;;;;;;;;;5011055;28;20068;-78
2022/11/13 06:01:19;;;;;;;19.92;10.40;;;;;;;;;;5026730;28;20061;-79
2022/11/13 06:03:45;;;;;;;19.67;10.23;;;;;;;;;;5028949;28;20054;-77
2022/11/13 06:06:14;;;;;;;18.38;10.18;;;;;;;;;;5014845;28;20054;-77
2022/11/13 06:08:41;;;;;;;18.27;10.23;;;;;;;;;;5013582;28;20058;-75
2022/11/13 06:11:09;;;;;;;20.40;10.57;;;;;;;;;;5014127;28;20596;-76
2022/11/13 06:13:35;;;;;;;16.42;10.02;;;;;;;;;;5032150;28;20065;-77
2022/11/13 06:16:03;;;;;;;18.77;10.55;;;;;;;;;;5009957;28;22151;-76
2022/11/13 06:18:29;;;;;;;19.88;9.95;;;;;;;;;;5014084;28;20068;-76
2022/11/13 06:21:04;;;;;;;17.17;10.23;;;;;;;;;;5031459;28;20046;-78
2022/11/13 06:23:31;;;;;;;17.35;10.55;;;;;;;;;;5013323;28;20054;-78
2022/11/13 06:26:05;;;;;;;19.42;10.00;;;;;;;;;;5011508;28;20061;-77
2022/11/13 06:28:32;;;;;;;16.50;9.63;;;;;;;;;;5011797;28;20069;-76
2022/11/13 06:31:10;;;;;;;20.02;9.57;;;;;;;;;;5012528;28;20541;-76
2022/11/13 06:33:36;;;;;;;19.27;10.77;;;;;;;;;;5013175;28;20046;-77
2022/11/13 06:36:04;;;;;;;17.83;10.05;;;;;;;;;;5027788;28;20062;-79
2022/11/13 06:38:31;;;;;;;19.77;10.85;;;;;;;;;;5010735;28;20054;-77
2022/11/13 06:40:58;;;;;;;17.92;10.30;;;;;;;;;;5013003;28;20062;-76
2022/11/13 06:43:24;;;;;;;21.02;10.70;;;;;;;;;;5011333;28;20057;-76
2022/11/13 06:45:51;;;;;;;21.55;10.65;;;;;;;;;;5011062;28;20050;-78
2022/11/13 06:48:18;;;;;;;23.83;11.35;;;;;;;;;;5011473;28;20046;-78
2022/11/13 06:50:44;;;;;;;21.98;11.45;;;;;;;;;;5012742;28;20108;-79
2022/11/13 06:53:13;;;;;;;19.65;11.15;;;;;;;;;;5011993;28;20057;-78
2022/11/13 06:55:44;;;;;;;19.73;10.35;;;;;;;;;;5008570;28;20054;-79
2022/11/13 06:58:11;;;;;;;22.90;10.68;;;;;;;;;;5003147;28;20050;-79
2022/11/13 07:00:37;;;;;;;19.85;10.40;;;;;;;;;;5020076;28;20062;-76
2022/11/13 07:03:05;;;;;;;20.90;10.90;;;;;;;;;;5007344;28;20041;-79
2022/11/13 07:05:34;;;;;;;20.75;10.65;;;;;;;;;;5011127;28;20057;-77
2022/11/13 07:08:01;;;;;;;19.85;10.73;;;;;;;;;;5000158;28;20433;-77
2022/11/13 07:10:27;;;;;;;19.05;10.80;;;;;;;;;;5013239;28;20495;-78
2022/11/13 07:12:53;;;;;;;16.38;10.88;;;;;;;;;;5030769;28;20096;-76
2022/11/13 07:15:20;;;;;;;17.52;10.40;;;;;;;;;;5011175;28;20054;-76
2022/11/13 07:17:46;;;;;;;20.00;11.00;;;;;;;;;;5009525;28;20065;-77
2022/11/13 07:20:12;;;;;;;19.63;11.30;;;;;;;;;;5024449;28;20563;-78
2022/11/13 07:22:39;;;;;;;17.70;10.48;;;;;;;;;;5030258;28;20049;-78
2022/11/13 07:25:05;;;;;;;18.00;10.85;;;;;;;;;;5024305;28;20077;-79
2022/11/13 07:27:32;;;;;;;23.25;11.18;;;;;;;;;;5028123;28;20041;-77
2022/11/13 07:29:58;;;;;;;21.08;12.02;;;;;;;;;;5028697;28;20073;-80
2022/11/13 07:32:29;;;;;;;21.23;11.77;;;;;;;;;;5029488;28;20053;-75
2022/11/13 07:34:55;;;;;;;21.20;11.95;;;;;;;;;;5011804;28;20042;-76
2022/11/13 07:37:21;;;;;;;22.67;12.65;;;;;;;;;;5011775;28;20050;-77
2022/11/13 07:39:47;;;;;;;22.50;12.15;;;;;;;;;;5011449;28;20057;-78
2022/11/13 07:42:14;;;;;;;31.05;13.10;;;;;;;;;;5026835;28;20077;-79
2022/11/13 07:44:40;;;;;;;22.20;11.50;;;;;;;;;;5012048;28;20057;-77
2022/11/13 07:47:19;;;;;;;19.67;11.88;;;;;;;;;;5016002;28;20125;-78
2022/11/13 07:49:45;;;;;;;20.02;11.32;;;;;;;;;;5012786;28;20060;-76
2022/11/13 07:52:12;;;;;;;21.83;12.52;;;;;;;;;;5011237;28;20061;-76
2022/11/13 07:54:38;;;;;;;19.33;11.75;;;;;;;;;;5010886;28;20061;-77
2022/11/13 07:57:05;;;;;;;23.15;12.20;;;;;;;;;;5030306;28;20037;-78
2022/11/13 07:59:31;;;;;;;20.58;11.32;;;;;;;;;;5011987;28;20061;-80
2022/11/13 08:02:00;;;;;;;22.15;11.23;;;;;;;;;;5029107;28;20073;-79
2022/11/13 08:04:27;;;;;;;18.05;10.55;;;;;;;;;;5012109;28;20948;-79
2022/11/13 08:06:53;;;;;;;20.52;10.10;;;;;;;;;;5029689;28;20757;-79
2022/11/13 08:09:20;;;;;;;19.83;10.63;;;;;;;;;;5029865;28;20061;-79
2022/11/13 08:11:46;;;;;;;17.80;10.32;;;;;;;;;;5011154;28;20499;-77
2022/11/13 08:14:12;;;;;;;19.02;11.02;;;;;;;;;;5017379;28;20055;-78
2022/11/13 08:16:38;;;;;;;20.85;11.43;;;;;;;;;;5034783;28;20058;-75
2022/11/13 08:19:05;;;;;;;19.35;11.23;;;;;;;;;;5013605;28;20058;-79
2022/11/13 08:21:31;;;;;;;18.70;11.23;;;;;;;;;;5008045;28;20054;-78
2022/11/13 08:23:57;;;;;;;20.17;11.40;;;;;;;;;;5016972;28;20086;-75
2022/11/13 08:26:24;;;;;;;19.33;11.93;;;;;;;;;;5025346;28;20069;-77
2022/11/13 08:28:50;;;;;;;18.88;12.02;;;;;;;;;;5029322;28;20049;-78
2022/11/13 08:31:16;;;;;;;22.02;12.23;;;;;;;;;;5012413;28;20084;-78
2022/11/13 08:33:43;;;;;;;23.27;12.32;;;;;;;;;;5012005;28;20108;-79
2022/11/13 08:36:09;;;;;;;25.42;12.77;;;;;;;;;;5011313;28;20057;-78
2022/11/13 08:38:36;;;;;;;22.85;11.80;;;;;;;;;;5011696;28;20057;-79
2022/11/13 08:41:03;;;;;;;25.20;14.23;;;;;;;;;;5011570;28;20058;-76
2022/11/13 08:43:34;;;;;;;23.77;13.10;;;;;;;;;;5012581;28;20104;-79
2022/11/13 08:46:01;;;;;;;25.13;13.60;;;;;;;;;;5008980;28;20068;-76
2022/11/13 08:48:27;;;;;;;26.08;14.38;;;;;;;;;;5014279;28;20064;-77
2022/11/13 08:50:54;;;;;;;23.27;13.05;;;;;;;;;;5001119;28;20054;-76
2022/11/13 08:53:21;;;;;;;20.63;12.38;;;;;;;;;;5003448;28;20057;-77
2022/11/13 08:55:48;;;;;;;25.70;13.98;;;;;;;;;;5011394;28;20046;-78
2022/11/13 08:58:14;;;;;;;23.45;12.90;;;;;;;;;;5001883;28;20076;-75
2022/11/13 09:00:41;;;;;;;22.73;14.07;;;;;;;;;;5005861;28;20087;-78
2022/11/13 09:03:08;;;;;;;28.05;13.90;;;;;;;;;;5010500;28;20068;-76
2022/11/13 09:05:34;;;;;;;19.67;12.43;;;;;;;;;;5026191;28;20054;-77
2022/11/13 09:08:00;;;;;;;20.98;12.57;;;;;;;;;;5008328;28;20061;-78
2022/11/13 09:10:27;;;;;;;22.35;12.70;;;;;;;;;;5007942;28;20062;-76
2022/11/13 09:12:54;;;;;;;24.40;13.70;;;;;;;;;;5010973;28;20050;-77
2022/11/13 09:15:21;;;;;;;24.23;13.65;;;;;;;;;;5033077;28;20053;-76
2022/11/13 09:17:49;;;;;;;19.80;12.02;;;;;;;;;;5004909;28;20069;-78
2022/11/13 09:20:16;;;;;;;20.30;12.55;;;;;;;;;;5014318;28;20060;-79
2022/11/13 09:22:48;;;;;;;19.33;12.10;;;;;;;;;;5013367;28;20053;-78
2022/11/13 09:25:14;;;;;;;20.45;11.88;;;;;;;;;;5015141;28;20065;-78
2022/11/13 09:27:40;;;;;;;19.33;11.80;;;;;;;;;;5010396;28;20054;-76
2022/11/13 09:30:08;;;;;;;19.17;12.20;;;;;;;;;;5017203;28;20050;-77
2022/11/13 09:32:34;;;;;;;19.98;11.73;;;;;;;;;;5007434;28;20144;-78
2022/11/13 09:35:01;;;;;;;16.75;11.18;;;;;;;;;;5009736;28;20513;-79
2022/11/13 09:37:27;;;;;;;18.75;11.52;;;;;;;;;;5035106;28;20095;-79
2022/11/13 09:39:53;;;;;;;18.60;11.00;;;;;;;;;;5037825;28;20384;-77
2022/11/13 09:42:22;;;;;;;18.42;10.95;;;;;;;;;;5003858;28;20062;-77
2022/11/13 09:44:58;;;;;;;19.67;11.77;;;;;;;;;;5010598;28;20116;-77
2022/11/13 09:47:27;;;;;;;23.83;11.73;;;;;;;;;;5016471;28;20061;-80
2022/11/13 09:49:57;;;;;;;18.20;10.43;;;;;;;;;;5034557;28;20953;-79
2022/11/13 09:52:29;;;;;;;17.00;9.70;;;;;;;;;;5031332;28;20057;-80
2022/11/13 09:54:57;;;;;;;14.52;9.27;;;;;;;;;;5034206;28;20058;-80
2022/11/13 09:57:30;;;;;;;16.88;9.65;;;;;;;;;;5014292;28;20062;-78
2022/11/13 10:00:02;;;;;;;16.48;10.07;;;;;;;;;;5033888;28;20061;-76
2022/11/13 10:02:43;;;;;;;16.55;9.65;;;;;;;;;;5033436;28;20066;-79
2022/11/13 10:05:16;;;;;;;14.65;9.20;;;;;;;;;;5016936;28;20061;-80
2022/11/13 10:07:45;;;;;;;14.60;8.60;;;;;;;;;;5015078;28;20057;-77
2022/11/13 10:10:18;;;;;;;16.25;8.73;;;;;;;;;;5034613;28;20053;-79
2022/11/13 10:12:45;;;;;;;13.07;8.73;;;;;;;;;;5017651;28;20061;-79
2022/11/13 10:15:12;;;;;;;13.52;8.77;;;;;;;;;;5027449;28;20613;-77
2022/11/13 10:17:49;;;;;;;14.43;8.57;;;;;;;;;;5033681;28;20062;-78
2022/11/13 10:20:22;;;;;;;15.43;9.50;;;;;;;;;;5016847;28;20034;-80
2022/11/13 10:22:50;;;;;;;17.60;9.60;;;;;;;;;;5033470;28;20065;-77
2022/11/13 10:25:18;;;;;;;15.95;8.65;;;;;;;;;;5027860;28;20057;-79
2022/11/13 10:28:08;;;;;;;13.02;8.52;;;;;;;;;;5012184;28;20050;-79
2022/11/13 10:30:54;;;;;;;16.70;8.45;;;;;;;;;;5043048;28;20549;-77
2022/11/13 10:33:21;;;;;;;14.77;9.23;;;;;;;;;;5013684;28;20069;-78
2022/11/13 10:35:55;;;;;;;12.80;8.15;;;;;;;;;;5013208;28;20543;-78
2022/11/13 10:38:31;;;;;;;14.40;8.68;;;;;;;;;;5012195;28;20053;-76
2022/11/13 10:41:05;;;;;;;13.90;8.15;;;;;;;;;;5013821;28;20109;-78
2022/11/13 10:43:32;;;;;;;12.55;7.65;;;;;;;;;;5011101;28;20058;-79
2022/11/13 10:46:00;;;;;;;14.45;7.45;;;;;;;;;;5013494;28;20061;-78
2022/11/13 10:48:27;;;;;;;14.90;8.27;;;;;;;;;;5030562;28;20057;-79
2022/11/13 10:50:56;;;;;;;11.73;7.53;;;;;;;;;;5013719;28;20962;-78
2022/11/13 10:53:23;;;;;;;10.88;7.13;;;;;;;;;;5011733;28;20058;-76
2022/11/13 10:55:51;;;;;;;14.82;7.90;;;;;;;;;;5030450;28;20148;-77
2022/11/13 10:58:18;;;;;;;14.30;8.18;;;;;;;;;;5012900;28;20054;-77
2022/11/13 11:00:48;;;;;;;15.40;8.05;;;;;;;;;;5011043;28;20077;-79
2022/11/13 11:03:16;;;;;;;16.23;8.55;;;;;;;;;;5012173;28;20061;-77
2022/11/13 11:05:53;;;;;;;13.52;8.57;;;;;;;;;;5009683;28;20422;-77
2022/11/13 11:08:21;;;;;;;11.75;8.10;;;;;;;;;;5009211;28;20039;-79
2022/11/13 11:13:41;;;;;;;11.38;6.63;;;;;;;;;;5029189;28;20058;-78
2022/11/13 11:16:09;;;;;;;13.77;7.13;;;;;;;;;;5028971;28;20133;-77
2022/11/13 11:19:02;;;;;;;12.07;6.10;;;;;;;;;;5028610;28;20054;-79
2022/11/13 11:21:31;;;;;;;13.15;7.30;;;;;;;;;;5014186;28;20182;-79
2022/11/13 11:23:57;;;;;;;12.07;7.03;;;;;;;;;;5029520;28;20058;-79
2022/11/13 11:26:28;;;;;;;12.60;7.65;;;;;;;;;;5029160;28;20516;-75
2022/11/13 11:29:11;;;;;;;10.75;6.63;;;;;;;;;;5011865;28;20054;-77
2022/11/13 11:31:43;;;;;;;11.80;6.45;;;;;;;;;;5030727;28;20058;-76
2022/11/13 11:34:16;;;;;;;11.65;7.13;;;;;;;;;;5028495;28;20066;-76
2022/11/13 11:36:43;;;;;;;11.77;6.28;;;;;;;;;;5010454;28;20058;-78
2022/11/13 11:39:18;;;;;;;14.60;7.32;;;;;;;;;;5037488;28;20048;-77
2022/11/13 11:41:48;;;;;;;12.50;6.88;;;;;;;;;;5029355;28;20056;-79
2022/11/13 11:44:23;;;;;;;11.80;6.72;;;;;;;;;;5010952;28;21099;-78
2022/11/13 11:46:50;;;;;;;12.45;7.00;;;;;;;;;;5011577;28;20869;-79
2022/11/13 11:49:17;;;;;;;14.18;6.65;;;;;;;;;;5026068;28;20062;-76
2022/11/13 11:51:53;;;;;;;15.05;6.53;;;;;;;;;;5010728;28;20061;-77
2022/11/13 11:54:26;;;;;;;13.00;6.75;;;;;;;;;;5010805;28;20061;-79
2022/11/13 11:56:55;;;;;;;11.75;6.28;;;;;;;;;;5010800;28;20057;-76
2022/11/13 11:59:22;;;;;;;12.50;6.83;;;;;;;;;;5011955;28;20064;-76
2022/11/13 12:02:08;;;;;;;13.23;6.82;;;;;;;;;;5009753;28;20065;-79
2022/11/13 12:04:42;;;;;;;14.23;6.90;;;;;;;;;;5010279;28;20280;-77
2022/11/13 12:07:21;;;;;;;13.00;6.82;;;;;;;;;;5029524;28;20053;-78
2022/11/13 12:10:03;;;;;;;11.68;6.97;;;;;;;;;;5011621;28;20046;-78
2022/11/13 12:12:52;;;;;;;11.95;6.93;;;;;;;;;;5010571;28;20042;-76
2022/11/13 12:15:25;;;;;;;10.82;6.45;;;;;;;;;;5008889;28;20543;-77
